Thunder radar more information blitzortung!


avis per Pluja more information rain snow radar


Visita la nostra xarxa de llocs de meteo:

Template documentation
and downloads

And another site



Rain From: 15-11-2018 00:00 Until: 23:59 warning for: Rain Level: Yellow info button

Pagina Historial Weather Underground text

Diari Resum May 28, 2017 Unitats:  Tant    Imperial   Mètric
« Previous Dia
SegĂźent Dia »
Diari Setmana Mensual Anual Personalitzada
  Maxima: Minima: Media:
Temperatura: TemperatureC °F /  -17.8 °C 14.9 °F /  -9.5 °C 22.5 °F /  -5.3 °C
Punt de rosada: DewpointC °F /  -17.8 °C 7.8 °F /  -13.4 °C 10.9 °F /  -11.7 °C
Humitat: Humidity % 32 % 49 %
Wind Speed: WindSpeedKMH mph /  0 km/h - 7.6 mph /  12.2 km/h
RĂ fegues de vent: WindSpeedGustKMH mph /  0 km/h - -
Vent:- - ESE
Pression baro: PressurehPa in /  0 hPa 1015.8 in /  34395 hPa -
Precipitacions: 0.0 in /  0 mm    
Historical Graphs
 
 
Dades de taula per May 28, 2017
Temps Temperatura Punt de rosada Pression baro Vent Wind Speed RĂ fegues de vent Humitat Rainfall Rate (Hourly)
TemperatureC °F /  -17.8 °C DewpointC °F /  -17.8 °C PressurehPa in /  0 hPa Calm     Humidity % HourlyPrecipMM in /  0 mm
00:00 15.4 °F /  -9.2 °C 11.9 °F /  -11.2 °C 1018.8 in /  34496.6 hPa SW 3.2 mph /  5.1 km/h 3.2 mph /  5.1 km/h 80 % 0.0 in /  0 mm
00:04 18.8 °F /  -7.3 °C 13.7 °F /  -10.2 °C 1018.8 in /  34496.6 hPa NNE 1.9 mph /  3.1 km/h   72 % 0.0 in /  0 mm
00:09 18.7 °F /  -7.4 °C 13.6 °F /  -10.2 °C 1018.8 in /  34496.6 hPa Calm     72 % 0.0 in /  0 mm
00:10 15.3 °F /  -9.3 °C 12.1 °F /  -11.1 °C 1017.8 in /  34462.7 hPa SW 1.6 mph /  2.6 km/h 3.2 mph /  5.1 km/h 81 % 0.0 in /  0 mm
00:14 18.7 °F /  -7.4 °C 13.6 °F /  -10.2 °C 1018.8 in /  34496.6 hPa ENE 1.9 mph /  3.1 km/h 1.9 mph /  3.1 km/h 72 % 0.0 in /  0 mm
00:20 15.2 °F /  -9.3 °C 11.9 °F /  -11.2 °C 1017.8 in /  34462.7 hPa SW 1.6 mph /  2.6 km/h 3.2 mph /  5.1 km/h 81 % 0.0 in /  0 mm
00:30 15.1 °F /  -9.4 °C 11.7 °F /  -11.3 °C 1017.8 in /  34462.7 hPa Calm   3.2 mph /  5.1 km/h 80 % 0.0 in /  0 mm
00:40 15.1 °F /  -9.4 °C 11.9 °F /  -11.2 °C 1017.8 in /  34462.7 hPa SW 1.6 mph /  2.6 km/h 1.6 mph /  2.6 km/h 81 % 0.0 in /  0 mm
00:50 15.2 °F /  -9.3 °C 11.8 °F /  -11.2 °C 1017.8 in /  34462.7 hPa WSW 3.2 mph /  5.1 km/h 3.2 mph /  5.1 km/h 80 % 0.0 in /  0 mm
01:00 14.9 °F /  -9.5 °C 11.7 °F /  -11.3 °C 1018.8 in /  34496.6 hPa Calm   3.2 mph /  5.1 km/h 81 % 0.0 in /  0 mm
01:10 14.9 °F /  -9.5 °C 11.7 °F /  -11.3 °C 1018.8 in /  34496.6 hPa WSW 1.6 mph /  2.6 km/h 3.2 mph /  5.1 km/h 81 % 0.0 in /  0 mm
01:20 14.9 °F /  -9.5 °C 11.5 °F /  -11.4 °C 1018.8 in /  34496.6 hPa WSW 3.2 mph /  5.1 km/h 3.2 mph /  5.1 km/h 80 % 0.0 in /  0 mm
01:30 15.0 °F /  -9.4 °C 11.6 °F /  -11.3 °C 1018.8 in /  34496.6 hPa WSW 1.6 mph /  2.6 km/h 3.2 mph /  5.1 km/h 80 % 0.0 in /  0 mm
01:40 15.0 °F /  -9.4 °C 11.6 °F /  -11.3 °C 1018.8 in /  34496.6 hPa SW 1.6 mph /  2.6 km/h 3.2 mph /  5.1 km/h 80 % 0.0 in /  0 mm
01:50 15.0 °F /  -9.4 °C 11.8 °F /  -11.2 °C 1018.8 in /  34496.6 hPa SW 1.6 mph /  2.6 km/h 3.2 mph /  5.1 km/h 81 % 0.0 in /  0 mm
02:00 15.1 °F /  -9.4 °C 11.9 °F /  -11.2 °C 1018.8 in /  34496.6 hPa Calm   3.2 mph /  5.1 km/h 81 % 0.0 in /  0 mm
02:10 15.3 °F /  -9.3 °C 12.1 °F /  -11.1 °C 1018.8 in /  34496.6 hPa SW 1.6 mph /  2.6 km/h 3.2 mph /  5.1 km/h 81 % 0.0 in /  0 mm
02:20 15.5 °F /  -9.2 °C 12.1 °F /  -11.1 °C 1018.8 in /  34496.6 hPa SW 1.6 mph /  2.6 km/h 3.2 mph /  5.1 km/h 80 % 0.0 in /  0 mm
02:30 15.9 °F /  -8.9 °C 12.4 °F /  -10.9 °C 1018.8 in /  34496.6 hPa Calm   1.6 mph /  2.6 km/h 80 % 0.0 in /  0 mm
02:40 16.0 °F /  -8.9 °C 12.3 °F /  -10.9 °C 1018.8 in /  34496.6 hPa WSW 3.2 mph /  5.1 km/h 3.2 mph /  5.1 km/h 79 % 0.0 in /  0 mm
02:50 16.2 °F /  -8.8 °C 12.6 °F /  -10.8 °C 1018.8 in /  34496.6 hPa SW 3.2 mph /  5.1 km/h 3.2 mph /  5.1 km/h 79 % 0.0 in /  0 mm
03:00 16.4 °F /  -8.7 °C 12.7 °F /  -10.7 °C 1018.8 in /  34496.6 hPa SW 1.6 mph /  2.6 km/h 3.2 mph /  5.1 km/h 79 % 0.0 in /  0 mm
03:10 17.5 °F /  -8.1 °C 13.4 °F /  -10.3 °C 1019.9 in /  34533.8 hPa SSW 1.6 mph /  2.6 km/h 1.6 mph /  2.6 km/h 77 % 0.0 in /  0 mm
03:20 18.0 °F /  -7.8 °C 13.5 °F /  -10.3 °C 1019.9 in /  34533.8 hPa South 1.6 mph /  2.6 km/h 3.2 mph /  5.1 km/h 75 % 0.0 in /  0 mm
03:30 18.1 °F /  -7.7 °C 13.4 °F /  -10.3 °C 1018.8 in /  34496.6 hPa SW 1.6 mph /  2.6 km/h 3.2 mph /  5.1 km/h 74 % 0.0 in /  0 mm
03:40 18.1 °F /  -7.7 °C 13.4 °F /  -10.3 °C 1019.9 in /  34533.8 hPa SW 3.2 mph /  5.1 km/h 3.2 mph /  5.1 km/h 74 % 0.0 in /  0 mm
03:50 18.8 °F /  -7.3 °C 13.8 °F /  -10.1 °C 1019.9 in /  34533.8 hPa Calm   1.6 mph /  2.6 km/h 73 % 0.0 in /  0 mm
04:00 19.7 °F /  -6.8 °C 14.1 °F /  -9.9 °C 1019.9 in /  34533.8 hPa SW 1.6 mph /  2.6 km/h 3.2 mph /  5.1 km/h 70 % 0.0 in /  0 mm
04:10 19.8 °F /  -6.8 °C 13.9 °F /  -10.1 °C 1019.9 in /  34533.8 hPa SW 1.6 mph /  2.6 km/h 4.8 mph /  7.7 km/h 69 % 0.0 in /  0 mm
04:20 20.6 °F /  -6.3 °C 13.8 °F /  -10.1 °C 1019.9 in /  34533.8 hPa SSW 3.2 mph /  5.1 km/h 3.2 mph /  5.1 km/h 65 % 0.0 in /  0 mm
04:30 21.3 °F /  -5.9 °C 14.4 °F /  -9.8 °C 1018.8 in /  34496.6 hPa SSE 1.6 mph /  2.6 km/h 3.2 mph /  5.1 km/h 65 % 0.0 in /  0 mm
04:40 22.0 °F /  -5.6 °C 14.1 °F /  -9.9 °C 1019.9 in /  34533.8 hPa ESE 1.6 mph /  2.6 km/h 3.2 mph /  5.1 km/h 61 % 0.0 in /  0 mm
04:50 22.8 °F /  -5.1 °C 14.6 °F /  -9.7 °C 1019.9 in /  34533.8 hPa Calm   3.2 mph /  5.1 km/h 60 % 0.0 in /  0 mm
05:00 22.8 °F /  -5.1 °C 14.4 °F /  -9.8 °C 1019.9 in /  34533.8 hPa NNE 3.2 mph /  5.1 km/h 4.8 mph /  7.7 km/h 59 % 0.0 in /  0 mm
05:10 22.9 °F /  -5.1 °C 13.9 °F /  -10.1 °C 1019.9 in /  34533.8 hPa NNE 1.6 mph /  2.6 km/h 4.8 mph /  7.7 km/h 57 % 0.0 in /  0 mm
05:20 23.4 °F /  -4.8 °C 13.8 °F /  -10.1 °C 1019.9 in /  34533.8 hPa NE 4.8 mph /  7.7 km/h 4.8 mph /  7.7 km/h 55 % 0.0 in /  0 mm
05:30 24.0 °F /  -4.4 °C 13.8 °F /  -10.1 °C 1019.9 in /  34533.8 hPa NE 4.8 mph /  7.7 km/h 9.7 mph /  15.6 km/h 53 % 0.0 in /  0 mm
05:40 24.4 °F /  -4.2 °C 13.9 °F /  -10.1 °C 1019.9 in /  34533.8 hPa NNE 4.8 mph /  7.7 km/h 6.4 mph /  10.3 km/h 52 % 0.0 in /  0 mm
05:50 24.6 °F /  -4.1 °C 13.2 °F /  -10.4 °C 1019.9 in /  34533.8 hPa NE 4.8 mph /  7.7 km/h 6.4 mph /  10.3 km/h 49 % 0.0 in /  0 mm
06:00 25.2 °F /  -3.8 °C 13.4 °F /  -10.3 °C 1018.8 in /  34496.6 hPa ENE 3.2 mph /  5.1 km/h 4.8 mph /  7.7 km/h 48 % 0.0 in /  0 mm
11:07 25.0 °F /  -3.9 °C 13.2 °F /  -10.4 °C 1019.9 in /  34533.8 hPa ENE 5.6 mph /  9 km/h 5.6 mph /  9 km/h 48 % 0.0 in /  0 mm
11:12 25.2 °F /  -3.8 °C 12.8 °F /  -10.7 °C 1019.9 in /  34533.8 hPa ESE 7.4 mph /  11.9 km/h 7.4 mph /  11.9 km/h 46 % 0.0 in /  0 mm
11:17 25.2 °F /  -3.8 °C 12.8 °F /  -10.7 °C 1019.9 in /  34533.8 hPa ESE 7.4 mph /  11.9 km/h 7.4 mph /  11.9 km/h 46 % 0.0 in /  0 mm
11:22 25.6 °F /  -3.6 °C 13.1 °F /  -10.5 °C 1019.9 in /  34533.8 hPa SE 4.2 mph /  6.8 km/h 4.2 mph /  6.8 km/h 46 % 0.0 in /  0 mm
11:27 26.3 °F /  -3.2 °C 13.8 °F /  -10.1 °C 1019.9 in /  34533.8 hPa NNE 7.4 mph /  11.9 km/h 7.4 mph /  11.9 km/h 46 % 0.0 in /  0 mm
11:32 25.8 °F /  -3.4 °C 13.3 °F /  -10.4 °C 1019.9 in /  34533.8 hPa ESE 7.4 mph /  11.9 km/h 7.4 mph /  11.9 km/h 46 % 0.0 in /  0 mm
11:37 25.7 °F /  -3.5 °C 12.9 °F /  -10.6 °C 1019.9 in /  34533.8 hPa East 7.4 mph /  11.9 km/h 7.4 mph /  11.9 km/h 45 % 0.0 in /  0 mm
11:42 26.4 °F /  -3.1 °C 13.5 °F /  -10.3 °C 1019.9 in /  34533.8 hPa NNW 5.6 mph /  9 km/h 5.6 mph /  9 km/h 45 % 0.0 in /  0 mm
11:47 26.1 °F /  -3.3 °C 12.9 °F /  -10.6 °C 1019.9 in /  34533.8 hPa ESE 9.7 mph /  15.6 km/h 9.7 mph /  15.6 km/h 44 % 0.0 in /  0 mm
11:52 26.4 °F /  -3.1 °C 13.5 °F /  -10.3 °C 1019.9 in /  34533.8 hPa WSW 2.6 mph /  4.2 km/h   45 % 0.0 in /  0 mm
11:57 26.8 °F /  -2.9 °C 13.9 °F /  -10.1 °C 1019.9 in /  34533.8 hPa NW 5.6 mph /  9 km/h 5.6 mph /  9 km/h 45 % 0.0 in /  0 mm
12:02 27.0 °F /  -2.8 °C 13.0 °F /  -10.6 °C 1019.9 in /  34533.8 hPa ESE 7.4 mph /  11.9 km/h 7.4 mph /  11.9 km/h 42 % 0.0 in /  0 mm
12:07 26.7 °F /  -2.9 °C 13.1 °F /  -10.5 °C 1018.8 in /  34496.6 hPa ESE 7.4 mph /  11.9 km/h 7.4 mph /  11.9 km/h 43 % 0.0 in /  0 mm
12:12 26.9 °F /  -2.8 °C 12.9 °F /  -10.6 °C 1018.8 in /  34496.6 hPa ESE 9.3 mph /  15 km/h 9.3 mph /  15 km/h 42 % 0.0 in /  0 mm
12:17 26.7 °F /  -2.9 °C 12.3 °F /  -10.9 °C 1018.8 in /  34496.6 hPa ESE 7.4 mph /  11.9 km/h 7.4 mph /  11.9 km/h 41 % 0.0 in /  0 mm
12:22 27.0 °F /  -2.8 °C 12.2 °F /  -11 °C 1018.8 in /  34496.6 hPa ENE 5.6 mph /  9 km/h 5.6 mph /  9 km/h 40 % 0.0 in /  0 mm
12:27 26.8 °F /  -2.9 °C 12.4 °F /  -10.9 °C 1018.8 in /  34496.6 hPa ENE 7.4 mph /  11.9 km/h 7.4 mph /  11.9 km/h 41 % 0.0 in /  0 mm
12:32 27.0 °F /  -2.8 °C 11.9 °F /  -11.2 °C 1018.8 in /  34496.6 hPa SE 7.4 mph /  11.9 km/h 7.4 mph /  11.9 km/h 39 % 0.0 in /  0 mm
12:37 26.7 °F /  -2.9 °C 11.6 °F /  -11.3 °C 1018.8 in /  34496.6 hPa SE 11.1 mph /  17.9 km/h 11.1 mph /  17.9 km/h 39 % 0.0 in /  0 mm
12:47 27.5 °F /  -2.5 °C 11.9 °F /  -11.2 °C 1018.8 in /  34496.6 hPa ESE 14.8 mph /  23.8 km/h 14.8 mph /  23.8 km/h 38 % 0.0 in /  0 mm
12:52 27.2 °F /  -2.7 °C 12.1 °F /  -11.1 °C 1017.8 in /  34462.7 hPa ENE 9.3 mph /  15 km/h 9.3 mph /  15 km/h 39 % 0.0 in /  0 mm
12:57 27.4 °F /  -2.6 °C 11.8 °F /  -11.2 °C 1017.8 in /  34462.7 hPa NE 9.3 mph /  15 km/h 9.3 mph /  15 km/h 38 % 0.0 in /  0 mm
13:02 27.5 °F /  -2.5 °C 12.3 °F /  -10.9 °C 1017.8 in /  34462.7 hPa ENE 9.3 mph /  15 km/h 9.3 mph /  15 km/h 39 % 0.0 in /  0 mm
13:07 27.3 °F /  -2.6 °C 12.1 °F /  -11.1 °C 1017.8 in /  34462.7 hPa East 7.4 mph /  11.9 km/h 7.4 mph /  11.9 km/h 39 % 0.0 in /  0 mm
13:12 27.2 °F /  -2.7 °C 11.2 °F /  -11.6 °C 1017.8 in /  34462.7 hPa ESE 16.7 mph /  26.9 km/h 16.7 mph /  26.9 km/h 37 % 0.0 in /  0 mm
13:17 27.4 °F /  -2.6 °C 11.4 °F /  -11.4 °C 1017.8 in /  34462.7 hPa ENE 11.1 mph /  17.9 km/h 11.1 mph /  17.9 km/h 37 % 0.0 in /  0 mm
13:27 27.4 °F /  -2.6 °C 11.4 °F /  -11.4 °C 1017.8 in /  34462.7 hPa ENE 13.0 mph /  20.9 km/h 13.0 mph /  20.9 km/h 37 % 0.0 in /  0 mm
13:32 27.6 °F /  -2.4 °C 12.0 °F /  -11.1 °C 1017.8 in /  34462.7 hPa East 14.8 mph /  23.8 km/h 14.8 mph /  23.8 km/h 38 % 0.0 in /  0 mm
13:37 27.5 °F /  -2.5 °C 11.5 °F /  -11.4 °C 1017.8 in /  34462.7 hPa ESE 13.0 mph /  20.9 km/h 13.0 mph /  20.9 km/h 37 % 0.0 in /  0 mm
13:42 27.3 °F /  -2.6 °C 11.3 °F /  -11.5 °C 1017.8 in /  34462.7 hPa ESE 11.1 mph /  17.9 km/h 11.1 mph /  17.9 km/h 37 % 0.0 in /  0 mm
13:47 27.3 °F /  -2.6 °C 11.7 °F /  -11.3 °C 1017.8 in /  34462.7 hPa SE 14.8 mph /  23.8 km/h 14.8 mph /  23.8 km/h 38 % 0.0 in /  0 mm
13:52 27.3 °F /  -2.6 °C 11.3 °F /  -11.5 °C 1017.8 in /  34462.7 hPa SE 14.8 mph /  23.8 km/h 14.8 mph /  23.8 km/h 37 % 0.0 in /  0 mm
13:57 27.4 °F /  -2.6 °C 11.4 °F /  -11.4 °C 1017.8 in /  34462.7 hPa ESE 13.0 mph /  20.9 km/h 13.0 mph /  20.9 km/h 37 % 0.0 in /  0 mm
14:02 27.4 °F /  -2.6 °C 11.8 °F /  -11.2 °C 1017.8 in /  34462.7 hPa ESE 13.0 mph /  20.9 km/h 13.0 mph /  20.9 km/h 38 % 0.0 in /  0 mm
14:07 27.4 °F /  -2.6 °C 11.8 °F /  -11.2 °C 1017.8 in /  34462.7 hPa East 9.5 mph /  15.3 km/h 9.5 mph /  15.3 km/h 38 % 0.0 in /  0 mm
14:12 27.1 °F /  -2.7 °C 11.6 °F /  -11.3 °C 1017.8 in /  34462.7 hPa East 16.1 mph /  25.9 km/h 16.1 mph /  25.9 km/h 38 % 0.0 in /  0 mm
14:17 27.4 °F /  -2.6 °C 11.8 °F /  -11.2 °C 1017.8 in /  34462.7 hPa ENE 11.1 mph /  17.9 km/h 11.1 mph /  17.9 km/h 38 % 0.0 in /  0 mm
14:22 27.4 °F /  -2.6 °C 11.4 °F /  -11.4 °C 1017.8 in /  34462.7 hPa East 9.3 mph /  15 km/h 9.3 mph /  15 km/h 37 % 0.0 in /  0 mm
14:27 27.2 °F /  -2.7 °C 11.2 °F /  -11.6 °C 1017.8 in /  34462.7 hPa NNE 16.7 mph /  26.9 km/h 16.7 mph /  26.9 km/h 37 % 0.0 in /  0 mm
14:32 27.4 °F /  -2.6 °C 11.4 °F /  -11.4 °C 1017.8 in /  34462.7 hPa East 13.0 mph /  20.9 km/h 13.0 mph /  20.9 km/h 37 % 0.0 in /  0 mm
14:37 27.5 °F /  -2.5 °C 11.5 °F /  -11.4 °C 1017.8 in /  34462.7 hPa ESE 11.1 mph /  17.9 km/h 11.1 mph /  17.9 km/h 37 % 0.0 in /  0 mm
14:42 27.7 °F /  -2.4 °C 11.7 °F /  -11.3 °C 1017.8 in /  34462.7 hPa East 9.3 mph /  15 km/h 9.3 mph /  15 km/h 37 % 0.0 in /  0 mm
14:47 27.7 °F /  -2.4 °C 11.7 °F /  -11.3 °C 1017.8 in /  34462.7 hPa ESE 11.1 mph /  17.9 km/h 11.1 mph /  17.9 km/h 37 % 0.0 in /  0 mm
14:52 27.5 °F /  -2.5 °C 11.5 °F /  -11.4 °C 1017.8 in /  34462.7 hPa ESE 14.8 mph /  23.8 km/h 14.8 mph /  23.8 km/h 37 % 0.0 in /  0 mm
14:57 27.8 °F /  -2.3 °C 12.2 °F /  -11 °C 1017.8 in /  34462.7 hPa East 9.3 mph /  15 km/h 9.3 mph /  15 km/h 38 % 0.0 in /  0 mm
15:02 27.5 °F /  -2.5 °C 11.9 °F /  -11.2 °C 1017.8 in /  34462.7 hPa ESE 18.0 mph /  29 km/h 18.0 mph /  29 km/h 38 % 0.0 in /  0 mm
15:07 27.1 °F /  -2.7 °C 11.6 °F /  -11.3 °C 1017.8 in /  34462.7 hPa ESE 13.0 mph /  20.9 km/h 13.0 mph /  20.9 km/h 38 % 0.0 in /  0 mm
15:12 27.3 °F /  -2.6 °C 11.7 °F /  -11.3 °C 1017.8 in /  34462.7 hPa East 13.0 mph /  20.9 km/h 13.0 mph /  20.9 km/h 38 % 0.0 in /  0 mm
15:17 27.1 °F /  -2.7 °C 11.6 °F /  -11.3 °C 1017.8 in /  34462.7 hPa East 13.0 mph /  20.9 km/h 13.0 mph /  20.9 km/h 38 % 0.0 in /  0 mm
15:22 27.0 °F /  -2.8 °C 11.4 °F /  -11.4 °C 1017.8 in /  34462.7 hPa ESE 14.8 mph /  23.8 km/h 14.8 mph /  23.8 km/h 38 % 0.0 in /  0 mm
15:23 27.0 °F /  -2.8 °C 11.4 °F /  -11.4 °C 1017.8 in /  34462.7 hPa ESE 14.8 mph /  23.8 km/h 14.8 mph /  23.8 km/h 38 % 0.0 in /  0 mm
15:28 27.2 °F /  -2.7 °C 11.7 °F /  -11.3 °C 1017.8 in /  34462.7 hPa ESE 19.5 mph /  31.4 km/h 19.5 mph /  31.4 km/h 38 % 0.0 in /  0 mm
15:33 27.0 °F /  -2.8 °C 11.1 °F /  -11.6 °C 1017.8 in /  34462.7 hPa SSE 13.0 mph /  20.9 km/h 13.0 mph /  20.9 km/h 37 % 0.0 in /  0 mm
15:38 27.1 °F /  -2.7 °C 11.2 °F /  -11.6 °C 1017.8 in /  34462.7 hPa SE 16.7 mph /  26.9 km/h 16.7 mph /  26.9 km/h 37 % 0.0 in /  0 mm
15:43 27.2 °F /  -2.7 °C 11.7 °F /  -11.3 °C 1017.8 in /  34462.7 hPa East 13.0 mph /  20.9 km/h 13.0 mph /  20.9 km/h 38 % 0.0 in /  0 mm
15:48 26.9 °F /  -2.8 °C 11.4 °F /  -11.4 °C 1017.8 in /  34462.7 hPa ESE 18.5 mph /  29.8 km/h 18.5 mph /  29.8 km/h 38 % 0.0 in /  0 mm
15:53 26.7 °F /  -2.9 °C 11.2 °F /  -11.6 °C 1017.8 in /  34462.7 hPa East 14.8 mph /  23.8 km/h 14.8 mph /  23.8 km/h 38 % 0.0 in /  0 mm
15:58 26.8 °F /  -2.9 °C 11.3 °F /  -11.5 °C 1017.8 in /  34462.7 hPa ESE 13.0 mph /  20.9 km/h 13.0 mph /  20.9 km/h 38 % 0.0 in /  0 mm
16:03 26.6 °F /  -3 °C 10.7 °F /  -11.8 °C 1017.8 in /  34462.7 hPa ESE 16.7 mph /  26.9 km/h 16.7 mph /  26.9 km/h 37 % 0.0 in /  0 mm
16:08 26.5 °F /  -3.1 °C 10.6 °F /  -11.9 °C 1017.8 in /  34462.7 hPa ENE 20.4 mph /  32.8 km/h 20.4 mph /  32.8 km/h 37 % 0.0 in /  0 mm
16:13 26.6 °F /  -3 °C 10.7 °F /  -11.8 °C 1017.8 in /  34462.7 hPa East 18.5 mph /  29.8 km/h 18.5 mph /  29.8 km/h 37 % 0.0 in /  0 mm
16:18 26.9 °F /  -2.8 °C 11.0 °F /  -11.7 °C 1017.8 in /  34462.7 hPa ENE 13.0 mph /  20.9 km/h 13.0 mph /  20.9 km/h 37 % 0.0 in /  0 mm
16:23 26.7 °F /  -2.9 °C 10.8 °F /  -11.8 °C 1016.8 in /  34428.8 hPa ESE 14.8 mph /  23.8 km/h 14.8 mph /  23.8 km/h 37 % 0.0 in /  0 mm
16:28 26.9 °F /  -2.8 °C 10.6 °F /  -11.9 °C 1016.8 in /  34428.8 hPa East 13.0 mph /  20.9 km/h 13.0 mph /  20.9 km/h 36 % 0.0 in /  0 mm
16:33 27.0 °F /  -2.8 °C 10.2 °F /  -12.1 °C 1016.8 in /  34428.8 hPa East 14.8 mph /  23.8 km/h 14.8 mph /  23.8 km/h 35 % 0.0 in /  0 mm
16:38 27.0 °F /  -2.8 °C 9.8 °F /  -12.3 °C 1016.8 in /  34428.8 hPa East 14.8 mph /  23.8 km/h 14.8 mph /  23.8 km/h 34 % 0.0 in /  0 mm
16:43 26.8 °F /  -2.9 °C 10.1 °F /  -12.2 °C 1016.8 in /  34428.8 hPa ENE 16.7 mph /  26.9 km/h 16.7 mph /  26.9 km/h 35 % 0.0 in /  0 mm
16:48 26.8 °F /  -2.9 °C 9.6 °F /  -12.4 °C 1016.8 in /  34428.8 hPa ESE 16.7 mph /  26.9 km/h 16.7 mph /  26.9 km/h 34 % 0.0 in /  0 mm
16:53 26.6 °F /  -3 °C 9.4 °F /  -12.6 °C 1017.8 in /  34462.7 hPa ESE 13.0 mph /  20.9 km/h 13.0 mph /  20.9 km/h 34 % 0.0 in /  0 mm
16:58 26.6 °F /  -3 °C 9.9 °F /  -12.3 °C 1017.8 in /  34462.7 hPa ENE 13.0 mph /  20.9 km/h 13.0 mph /  20.9 km/h 35 % 0.0 in /  0 mm
17:03 26.6 °F /  -3 °C 9.4 °F /  -12.6 °C 1017.8 in /  34462.7 hPa South 14.0 mph /  22.5 km/h 14.0 mph /  22.5 km/h 34 % 0.0 in /  0 mm
17:08 26.4 °F /  -3.1 °C 8.8 °F /  -12.9 °C 1017.8 in /  34462.7 hPa ENE 14.8 mph /  23.8 km/h 14.8 mph /  23.8 km/h 33 % 0.0 in /  0 mm
17:13 26.3 °F /  -3.2 °C 9.2 °F /  -12.7 °C 1017.8 in /  34462.7 hPa ESE 16.7 mph /  26.9 km/h 16.7 mph /  26.9 km/h 34 % 0.0 in /  0 mm
17:18 26.2 °F /  -3.2 °C 9.1 °F /  -12.7 °C 1017.8 in /  34462.7 hPa East 20.4 mph /  32.8 km/h 20.4 mph /  32.8 km/h 34 % 0.0 in /  0 mm
17:23 26.2 °F /  -3.2 °C 9.1 °F /  -12.7 °C 1017.8 in /  34462.7 hPa ENE 16.4 mph /  26.4 km/h 16.4 mph /  26.4 km/h 34 % 0.0 in /  0 mm
17:28 26.1 °F /  -3.3 °C 9.0 °F /  -12.8 °C 1017.8 in /  34462.7 hPa East 18.5 mph /  29.8 km/h 18.5 mph /  29.8 km/h 34 % 0.0 in /  0 mm
17:33 26.2 °F /  -3.2 °C 8.7 °F /  -12.9 °C 1017.8 in /  34462.7 hPa ESE 16.7 mph /  26.9 km/h 16.7 mph /  26.9 km/h 33 % 0.0 in /  0 mm
17:38 26.3 °F /  -3.2 °C 8.7 °F /  -12.9 °C 1017.8 in /  34462.7 hPa ESE 16.7 mph /  26.9 km/h 16.7 mph /  26.9 km/h 33 % 0.0 in /  0 mm
17:43 26.2 °F /  -3.2 °C 8.7 °F /  -12.9 °C 1017.8 in /  34462.7 hPa ESE 13.0 mph /  20.9 km/h 13.0 mph /  20.9 km/h 33 % 0.0 in /  0 mm
17:48 26.2 °F /  -3.2 °C 8.2 °F /  -13.2 °C 1017.8 in /  34462.7 hPa ESE 18.5 mph /  29.8 km/h 18.5 mph /  29.8 km/h 32 % 0.0 in /  0 mm
17:53 26.1 °F /  -3.3 °C 8.6 °F /  -13 °C 1017.8 in /  34462.7 hPa ESE 16.7 mph /  26.9 km/h 16.7 mph /  26.9 km/h 33 % 0.0 in /  0 mm
17:58 26.0 °F /  -3.3 °C 8.5 °F /  -13.1 °C 1017.8 in /  34462.7 hPa ESE 18.5 mph /  29.8 km/h 18.5 mph /  29.8 km/h 33 % 0.0 in /  0 mm
18:03 25.8 °F /  -3.4 °C 7.8 °F /  -13.4 °C 1017.8 in /  34462.7 hPa East 16.7 mph /  26.9 km/h 16.7 mph /  26.9 km/h 32 % 0.0 in /  0 mm
18:08 25.7 °F /  -3.5 °C 8.2 °F /  -13.2 °C 1017.8 in /  34462.7 hPa SE 16.7 mph /  26.9 km/h 16.7 mph /  26.9 km/h 33 % 0.0 in /  0 mm
18:13 25.7 °F /  -3.5 °C 8.7 °F /  -12.9 °C 1017.8 in /  34462.7 hPa ESE 16.7 mph /  26.9 km/h 16.7 mph /  26.9 km/h 34 % 0.0 in /  0 mm
18:18 25.5 °F /  -3.6 °C 8.5 °F /  -13.1 °C 1017.8 in /  34462.7 hPa ESE 16.7 mph /  26.9 km/h 16.7 mph /  26.9 km/h 34 % 0.0 in /  0 mm
18:23 25.5 °F /  -3.6 °C 8.9 °F /  -12.8 °C 1016.8 in /  34428.8 hPa ESE 11.1 mph /  17.9 km/h 11.1 mph /  17.9 km/h 35 % 0.0 in /  0 mm
18:28 25.3 °F /  -3.7 °C 8.7 °F /  -12.9 °C 1016.8 in /  34428.8 hPa ESE 16.7 mph /  26.9 km/h 16.7 mph /  26.9 km/h 35 % 0.0 in /  0 mm
18:33 25.3 °F /  -3.7 °C 8.7 °F /  -12.9 °C 1016.8 in /  34428.8 hPa ESE 13.0 mph /  20.9 km/h 13.0 mph /  20.9 km/h 35 % 0.0 in /  0 mm
18:38 25.2 °F /  -3.8 °C 8.7 °F /  -12.9 °C 1016.8 in /  34428.8 hPa ESE 20.4 mph /  32.8 km/h 20.4 mph /  32.8 km/h 35 % 0.0 in /  0 mm
18:43 25.2 °F /  -3.8 °C 9.1 °F /  -12.7 °C 1016.8 in /  34428.8 hPa East 13.0 mph /  20.9 km/h 13.0 mph /  20.9 km/h 36 % 0.0 in /  0 mm
18:48 25.0 °F /  -3.9 °C 8.9 °F /  -12.8 °C 1016.8 in /  34428.8 hPa East 18.5 mph /  29.8 km/h 18.5 mph /  29.8 km/h 36 % 0.0 in /  0 mm
18:53 24.8 °F /  -4 °C 9.1 °F /  -12.7 °C 1016.8 in /  34428.8 hPa SE 16.7 mph /  26.9 km/h 16.7 mph /  26.9 km/h 37 % 0.0 in /  0 mm
18:58 24.7 °F /  -4.1 °C 9.0 °F /  -12.8 °C 1016.8 in /  34428.8 hPa ESE 18.5 mph /  29.8 km/h 18.5 mph /  29.8 km/h 37 % 0.0 in /  0 mm
19:03 24.6 °F /  -4.1 °C 8.9 °F /  -12.8 °C 1016.8 in /  34428.8 hPa ESE 13.0 mph /  20.9 km/h 13.0 mph /  20.9 km/h 37 % 0.0 in /  0 mm
19:08 24.6 °F /  -4.1 °C 8.9 °F /  -12.8 °C 1015.8 in /  34395 hPa ENE 13.0 mph /  20.9 km/h 13.0 mph /  20.9 km/h 37 % 0.0 in /  0 mm
19:13 24.5 °F /  -4.2 °C 8.8 °F /  -12.9 °C 1015.8 in /  34395 hPa ESE 14.8 mph /  23.8 km/h 14.8 mph /  23.8 km/h 37 % 0.0 in /  0 mm
19:18 24.5 °F /  -4.2 °C 9.2 °F /  -12.7 °C 1015.8 in /  34395 hPa ESE 13.0 mph /  20.9 km/h 13.0 mph /  20.9 km/h 38 % 0.0 in /  0 mm
19:20 19.2 °F /  -7.1 °C 10.4 °F /  -12 °C 1017.8 in /  34462.7 hPa Calm     57 % 0.0 in /  0 mm
19:23 24.5 °F /  -4.2 °C 9.6 °F /  -12.4 °C 1016.8 in /  34428.8 hPa SE 9.3 mph /  15 km/h 9.3 mph /  15 km/h 39 % 0.0 in /  0 mm
19:28 24.4 °F /  -4.2 °C 9.2 °F /  -12.7 °C 1016.8 in /  34428.8 hPa ESE 10.0 mph /  16.1 km/h 10.0 mph /  16.1 km/h 38 % 0.0 in /  0 mm
19:30 19.0 °F /  -7.2 °C 10.6 °F /  -11.9 °C 1017.8 in /  34462.7 hPa Calm     58 % 0.0 in /  0 mm
19:33 24.3 °F /  -4.3 °C 9.4 °F /  -12.6 °C 1016.8 in /  34428.8 hPa East 14.8 mph /  23.8 km/h 14.8 mph /  23.8 km/h 39 % 0.0 in /  0 mm
19:38 24.2 °F /  -4.3 °C 9.4 °F /  -12.6 °C 1015.8 in /  34395 hPa South 9.3 mph /  15 km/h 9.3 mph /  15 km/h 39 % 0.0 in /  0 mm
19:40 18.9 °F /  -7.3 °C 10.7 °F /  -11.8 °C 1017.8 in /  34462.7 hPa NE 1.6 mph /  2.6 km/h 1.6 mph /  2.6 km/h 59 % 0.0 in /  0 mm
19:43 24.3 °F /  -4.3 °C 9.4 °F /  -12.6 °C 1015.8 in /  34395 hPa SE 9.3 mph /  15 km/h 9.3 mph /  15 km/h 39 % 0.0 in /  0 mm
19:48 24.2 °F /  -4.3 °C 9.7 °F /  -12.4 °C 1015.8 in /  34395 hPa SE 12.6 mph /  20.3 km/h 12.6 mph /  20.3 km/h 40 % 0.0 in /  0 mm
19:50 18.7 °F /  -7.4 °C 10.8 °F /  -11.8 °C 1017.8 in /  34462.7 hPa Calm   1.6 mph /  2.6 km/h 60 % 0.0 in /  0 mm
19:53 23.9 °F /  -4.5 °C 9.5 °F /  -12.5 °C 1016.8 in /  34428.8 hPa ESE 11.1 mph /  17.9 km/h 11.1 mph /  17.9 km/h 40 % 0.0 in /  0 mm
19:58 23.9 °F /  -4.5 °C 9.5 °F /  -12.5 °C 1016.8 in /  34428.8 hPa South 7.4 mph /  11.9 km/h 7.4 mph /  11.9 km/h 40 % 0.0 in /  0 mm
20:00 18.4 °F /  -7.6 °C 10.5 °F /  -11.9 °C 1017.8 in /  34462.7 hPa ENE 1.6 mph /  2.6 km/h 1.6 mph /  2.6 km/h 60 % 0.0 in /  0 mm
20:03 23.6 °F /  -4.7 °C 9.2 °F /  -12.7 °C 1016.8 in /  34428.8 hPa ESE 9.3 mph /  15 km/h 9.3 mph /  15 km/h 40 % 0.0 in /  0 mm
20:08 23.5 °F /  -4.7 °C 9.1 °F /  -12.7 °C 1016.8 in /  34428.8 hPa ESE 11.1 mph /  17.9 km/h 11.1 mph /  17.9 km/h 40 % 0.0 in /  0 mm
20:10 18.2 °F /  -7.7 °C 10.6 °F /  -11.9 °C 1017.8 in /  34462.7 hPa ENE 1.6 mph /  2.6 km/h 3.2 mph /  5.1 km/h 61 % 0.0 in /  0 mm
20:13 23.3 °F /  -4.8 °C 9.3 °F /  -12.6 °C 1016.8 in /  34428.8 hPa ESE 12.2 mph /  19.6 km/h 12.2 mph /  19.6 km/h 41 % 0.0 in /  0 mm
20:18 23.2 °F /  -4.9 °C 9.2 °F /  -12.7 °C 1016.8 in /  34428.8 hPa ENE 11.1 mph /  17.9 km/h 11.1 mph /  17.9 km/h 41 % 0.0 in /  0 mm
20:20 18.0 °F /  -7.8 °C 10.4 °F /  -12 °C 1017.8 in /  34462.7 hPa Calm   3.2 mph /  5.1 km/h 61 % 0.0 in /  0 mm
20:23 23.1 °F /  -4.9 °C 9.1 °F /  -12.7 °C 1016.8 in /  34428.8 hPa SSE 13.0 mph /  20.9 km/h 13.0 mph /  20.9 km/h 41 % 0.0 in /  0 mm
20:28 23.0 °F /  -5 °C 9.4 °F /  -12.6 °C 1016.8 in /  34428.8 hPa East 9.3 mph /  15 km/h 9.3 mph /  15 km/h 42 % 0.0 in /  0 mm
20:30 17.9 °F /  -7.8 °C 10.3 °F /  -12.1 °C 1017.8 in /  34462.7 hPa Calm   1.6 mph /  2.6 km/h 61 % 0.0 in /  0 mm
20:33 22.8 °F /  -5.1 °C 9.6 °F /  -12.4 °C 1016.8 in /  34428.8 hPa East 10.0 mph /  16.1 km/h 10.0 mph /  16.1 km/h 43 % 0.0 in /  0 mm
20:38 22.7 °F /  -5.2 °C 9.8 °F /  -12.3 °C 1016.8 in /  34428.8 hPa East 7.4 mph /  11.9 km/h 7.4 mph /  11.9 km/h 44 % 0.0 in /  0 mm
20:40 17.8 °F /  -7.9 °C 10.4 °F /  -12 °C 1017.8 in /  34462.7 hPa Calm   1.6 mph /  2.6 km/h 62 % 0.0 in /  0 mm
20:43 22.5 °F /  -5.3 °C 9.6 °F /  -12.4 °C 1016.8 in /  34428.8 hPa ESE 6.4 mph /  10.3 km/h 6.4 mph /  10.3 km/h 44 % 0.0 in /  0 mm
20:48 22.4 °F /  -5.3 °C 9.6 °F /  -12.4 °C 1016.8 in /  34428.8 hPa ESE 5.6 mph /  9 km/h 5.6 mph /  9 km/h 44 % 0.0 in /  0 mm
20:50 17.6 °F /  -8 °C 10.2 °F /  -12.1 °C 1017.8 in /  34462.7 hPa NE 1.6 mph /  2.6 km/h 3.2 mph /  5.1 km/h 62 % 0.0 in /  0 mm
20:53 22.3 °F /  -5.4 °C 9.8 °F /  -12.3 °C 1016.8 in /  34428.8 hPa ESE 7.4 mph /  11.9 km/h 7.4 mph /  11.9 km/h 45 % 0.0 in /  0 mm
20:58 22.2 °F /  -5.4 °C 9.7 °F /  -12.4 °C 1016.8 in /  34428.8 hPa ESE 7.4 mph /  11.9 km/h 7.4 mph /  11.9 km/h 45 % 0.0 in /  0 mm
21:00 17.5 °F /  -8.1 °C 10.4 °F /  -12 °C 1017.8 in /  34462.7 hPa NE 1.6 mph /  2.6 km/h 3.2 mph /  5.1 km/h 63 % 0.0 in /  0 mm
21:03 22.1 °F /  -5.5 °C 9.6 °F /  -12.4 °C 1016.8 in /  34428.8 hPa ESE 11.1 mph /  17.9 km/h 11.1 mph /  17.9 km/h 45 % 0.0 in /  0 mm
21:08 22.0 °F /  -5.6 °C 9.8 °F /  -12.3 °C 1016.8 in /  34428.8 hPa ESE 5.6 mph /  9 km/h 5.6 mph /  9 km/h 46 % 0.0 in /  0 mm
21:10 17.4 °F /  -8.1 °C 10.3 °F /  -12.1 °C 1016.8 in /  34428.8 hPa Calm   1.6 mph /  2.6 km/h 63 % 0.0 in /  0 mm
21:13 22.0 °F /  -5.6 °C 9.8 °F /  -12.3 °C 1016.8 in /  34428.8 hPa SE 7.4 mph /  11.9 km/h 7.4 mph /  11.9 km/h 46 % 0.0 in /  0 mm
21:18 21.9 °F /  -5.6 °C 10.1 °F /  -12.2 °C 1016.8 in /  34428.8 hPa ESE 7.4 mph /  11.9 km/h 7.4 mph /  11.9 km/h 47 % 0.0 in /  0 mm
21:20 17.4 °F /  -8.1 °C 10.3 °F /  -12.1 °C 1016.8 in /  34428.8 hPa NE 1.6 mph /  2.6 km/h 3.2 mph /  5.1 km/h 63 % 0.0 in /  0 mm
21:23 21.7 °F /  -5.7 °C 9.9 °F /  -12.3 °C 1016.8 in /  34428.8 hPa SSE 5.6 mph /  9 km/h 5.6 mph /  9 km/h 47 % 0.0 in /  0 mm
21:28 21.7 °F /  -5.7 °C 9.9 °F /  -12.3 °C 1016.8 in /  34428.8 hPa East 5.6 mph /  9 km/h 5.6 mph /  9 km/h 47 % 0.0 in /  0 mm
21:30 17.2 °F /  -8.2 °C 10.1 °F /  -12.2 °C 1016.8 in /  34428.8 hPa NE 1.6 mph /  2.6 km/h 1.6 mph /  2.6 km/h 63 % 0.0 in /  0 mm
21:33 21.6 °F /  -5.8 °C 9.8 °F /  -12.3 °C 1016.8 in /  34428.8 hPa SE 3.7 mph /  6 km/h 3.7 mph /  6 km/h 47 % 0.0 in /  0 mm
21:38 21.5 °F /  -5.8 °C 10.0 °F /  -12.2 °C 1016.8 in /  34428.8 hPa East 3.7 mph /  6 km/h 3.7 mph /  6 km/h 48 % 0.0 in /  0 mm
21:40 17.2 °F /  -8.2 °C 9.8 °F /  -12.3 °C 1016.8 in /  34428.8 hPa NE 1.6 mph /  2.6 km/h 3.2 mph /  5.1 km/h 62 % 0.0 in /  0 mm
21:43 21.3 °F /  -5.9 °C 9.8 °F /  -12.3 °C 1016.8 in /  34428.8 hPa ENE 3.9 mph /  6.3 km/h 3.9 mph /  6.3 km/h 48 % 0.0 in /  0 mm
21:48 21.2 °F /  -6 °C 9.7 °F /  -12.4 °C 1016.8 in /  34428.8 hPa ESE 3.7 mph /  6 km/h 3.7 mph /  6 km/h 48 % 0.0 in /  0 mm
21:50 17.1 °F /  -8.3 °C 10.0 °F /  -12.2 °C 1015.8 in /  34395 hPa Calm   1.6 mph /  2.6 km/h 63 % 0.0 in /  0 mm
21:53 21.2 °F /  -6 °C 9.7 °F /  -12.4 °C 1017.8 in /  34462.7 hPa NE 3.7 mph /  6 km/h 3.7 mph /  6 km/h 48 % 0.0 in /  0 mm
21:58 21.1 °F /  -6.1 °C 9.9 °F /  -12.3 °C 1017.8 in /  34462.7 hPa ENE 3.7 mph /  6 km/h   49 % 0.0 in /  0 mm
22:00 16.9 °F /  -8.4 °C 10.1 °F /  -12.2 °C 1015.8 in /  34395 hPa Calm     64 % 0.0 in /  0 mm
22:03 21.0 °F /  -6.1 °C 9.9 °F /  -12.3 °C 1017.8 in /  34462.7 hPa ENE 3.7 mph /  6 km/h 3.7 mph /  6 km/h 49 % 0.0 in /  0 mm
22:08 21.0 °F /  -6.1 °C 9.9 °F /  -12.3 °C 1017.8 in /  34462.7 hPa NNE 4.7 mph /  7.6 km/h 4.7 mph /  7.6 km/h 49 % 0.0 in /  0 mm
22:10 16.8 °F /  -8.4 °C 10.2 °F /  -12.1 °C 1015.8 in /  34395 hPa Calm     65 % 0.0 in /  0 mm
22:13 20.9 °F /  -6.2 °C 10.1 °F /  -12.2 °C 1017.8 in /  34462.7 hPa ENE 3.7 mph /  6 km/h 3.7 mph /  6 km/h 50 % 0.0 in /  0 mm
22:18 20.8 °F /  -6.2 °C 10.0 °F /  -12.2 °C 1017.8 in /  34462.7 hPa NNE 3.7 mph /  6 km/h 3.7 mph /  6 km/h 50 % 0.0 in /  0 mm
22:20 16.5 °F /  -8.6 °C 9.9 °F /  -12.3 °C 1015.8 in /  34395 hPa NE 1.6 mph /  2.6 km/h 1.6 mph /  2.6 km/h 65 % 0.0 in /  0 mm
22:23 20.8 °F /  -6.2 °C 10.3 °F /  -12.1 °C 1017.8 in /  34462.7 hPa NE 5.6 mph /  9 km/h 5.6 mph /  9 km/h 51 % 0.0 in /  0 mm
22:28 20.8 °F /  -6.2 °C 10.3 °F /  -12.1 °C 1017.8 in /  34462.7 hPa NE 3.7 mph /  6 km/h 3.7 mph /  6 km/h 51 % 0.0 in /  0 mm
22:30 16.2 °F /  -8.8 °C 9.8 °F /  -12.3 °C 1015.8 in /  34395 hPa Calm   1.6 mph /  2.6 km/h 66 % 0.0 in /  0 mm
22:33 20.7 °F /  -6.3 °C 10.2 °F /  -12.1 °C 1017.8 in /  34462.7 hPa NE 3.9 mph /  6.3 km/h 3.9 mph /  6.3 km/h 51 % 0.0 in /  0 mm
22:38 20.7 °F /  -6.3 °C 10.2 °F /  -12.1 °C 1017.8 in /  34462.7 hPa NNE 3.7 mph /  6 km/h 3.7 mph /  6 km/h 51 % 0.0 in /  0 mm
22:40 16.0 °F /  -8.9 °C 9.7 °F /  -12.4 °C 1015.8 in /  34395 hPa Calm     66 % 0.0 in /  0 mm
22:43 20.5 °F /  -6.4 °C 10.3 °F /  -12.1 °C 1017.8 in /  34462.7 hPa NNE 3.7 mph /  6 km/h 3.7 mph /  6 km/h 52 % 0.0 in /  0 mm
22:48 20.5 °F /  -6.4 °C 10.3 °F /  -12.1 °C 1017.8 in /  34462.7 hPa NE 3.7 mph /  6 km/h 3.7 mph /  6 km/h 52 % 0.0 in /  0 mm
22:50 15.8 °F /  -9 °C 9.2 °F /  -12.7 °C 1015.8 in /  34395 hPa Calm     65 % 0.0 in /  0 mm
22:53 20.4 °F /  -6.4 °C 10.5 °F /  -11.9 °C 1017.8 in /  34462.7 hPa NE 1.9 mph /  3.1 km/h   53 % 0.0 in /  0 mm
22:58 20.3 °F /  -6.5 °C 10.4 °F /  -12 °C 1017.8 in /  34462.7 hPa NNE 2.3 mph /  3.7 km/h 2.3 mph /  3.7 km/h 53 % 0.0 in /  0 mm
23:00 15.8 °F /  -9 °C 9.2 °F /  -12.7 °C 1015.8 in /  34395 hPa SW 3.2 mph /  5.1 km/h 3.2 mph /  5.1 km/h 65 % 0.0 in /  0 mm
23:03 20.2 °F /  -6.6 °C 10.3 °F /  -12.1 °C 1017.8 in /  34462.7 hPa Calm     53 % 0.0 in /  0 mm
23:08 20.1 °F /  -6.6 °C 10.5 °F /  -11.9 °C 1017.8 in /  34462.7 hPa NNE 1.9 mph /  3.1 km/h 1.9 mph /  3.1 km/h 54 % 0.0 in /  0 mm
23:10 15.6 °F /  -9.1 °C 9.1 °F /  -12.7 °C 1015.8 in /  34395 hPa SW 1.6 mph /  2.6 km/h 3.2 mph /  5.1 km/h 65 % 0.0 in /  0 mm
23:13 20.1 °F /  -6.6 °C 10.5 °F /  -11.9 °C 1017.8 in /  34462.7 hPa NNE 2.3 mph /  3.7 km/h 2.3 mph /  3.7 km/h 54 % 0.0 in /  0 mm
23:18 20.1 °F /  -6.6 °C 10.5 °F /  -11.9 °C 1017.8 in /  34462.7 hPa NE 3.7 mph /  6 km/h 3.7 mph /  6 km/h 54 % 0.0 in /  0 mm
23:20 15.6 °F /  -9.1 °C 9.1 °F /  -12.7 °C 1015.8 in /  34395 hPa WSW 1.6 mph /  2.6 km/h 3.2 mph /  5.1 km/h 65 % 0.0 in /  0 mm
23:23 20.0 °F /  -6.7 °C 10.7 °F /  -11.8 °C 1017.8 in /  34462.7 hPa Calm     55 % 0.0 in /  0 mm
23:28 19.9 °F /  -6.7 °C 10.6 °F /  -11.9 °C 1017.8 in /  34462.7 hPa Calm     55 % 0.0 in /  0 mm
23:30 15.6 °F /  -9.1 °C 9.1 °F /  -12.7 °C 1015.8 in /  34395 hPa SW 1.6 mph /  2.6 km/h 1.6 mph /  2.6 km/h 65 % 0.0 in /  0 mm
23:33 19.8 °F /  -6.8 °C 10.5 °F /  -11.9 °C 1017.8 in /  34462.7 hPa Calm     55 % 0.0 in /  0 mm
23:38 19.7 °F /  -6.8 °C 10.4 °F /  -12 °C 1016.8 in /  34428.8 hPa Calm     55 % 0.0 in /  0 mm
23:40 15.7 °F /  -9.1 °C 9.4 °F /  -12.6 °C 1015.8 in /  34395 hPa Calm   1.6 mph /  2.6 km/h 66 % 0.0 in /  0 mm
23:43 19.6 °F /  -6.9 °C 10.6 °F /  -11.9 °C 1016.8 in /  34428.8 hPa Calm     56 % 0.0 in /  0 mm
23:48 19.6 °F /  -6.9 °C 10.6 °F /  -11.9 °C 1016.8 in /  34428.8 hPa NE 1.9 mph /  3.1 km/h   56 % 0.0 in /  0 mm
23:50 15.6 °F /  -9.1 °C 9.3 °F /  -12.6 °C 1015.8 in /  34395 hPa Calm     66 % 0.0 in /  0 mm
23:53 19.6 °F /  -6.9 °C 10.6 °F /  -11.9 °C 1017.8 in /  34462.7 hPa Calm     56 % 0.0 in /  0 mm
23:58 19.5 °F /  -6.9 °C 10.8 °F /  -11.8 °C 1017.8 in /  34462.7 hPa Calm     57 % 0.0 in /  0 mm
Meteo Sesrovires
Elogis d' Weather Underground - 2.5 mb

Guio original per  Jim McMurry - jmcmurry@mwt.net Adaptat per a la plantilla per  Wim van der Kuil - Leuven-Template.eu

Trobareu la nostra informacio del temps tambe a:

Weather Underground

AWEKAS